sensor_id;sensor_type;location;lat;lon;timestamp;temperature;humidity
15991;DHT22;8100;50.994;4.538;2024-03-25T00:00:02;4.10;99.90
15991;DHT22;8100;50.994;4.538;2024-03-25T00:02:56;3.80;99.90
15991;DHT22;8100;50.994;4.538;2024-03-25T00:05:42;3.80;99.90
15991;DHT22;8100;50.994;4.538;2024-03-25T00:08:29;3.80;99.90
15991;DHT22;8100;50.994;4.538;2024-03-25T00:11:15;3.90;94.10
15991;DHT22;8100;50.994;4.538;2024-03-25T00:14:03;3.90;88.30
15991;DHT22;8100;50.994;4.538;2024-03-25T00:16:50;4.00;15.10
15991;DHT22;8100;50.994;4.538;2024-03-25T00:19:37;3.90;1.00
15991;DHT22;8100;50.994;4.538;2024-03-25T00:22:23;4.00;1.00
15991;DHT22;8100;50.994;4.538;2024-03-25T00:25:11;3.90;1.00
15991;DHT22;8100;50.994;4.538;2024-03-25T00:27:57;3.80;1.00
15991;DHT22;8100;50.994;4.538;2024-03-25T00:30:45;3.70;1.00
15991;DHT22;8100;50.994;4.538;2024-03-25T00:33:31;3.70;1.00
15991;DHT22;8100;50.994;4.538;2024-03-25T00:36:19;3.70;1.00
15991;DHT22;8100;50.994;4.538;2024-03-25T00:39:05;3.80;1.00
15991;DHT22;8100;50.994;4.538;2024-03-25T00:41:53;3.70;1.00
15991;DHT22;8100;50.994;4.538;2024-03-25T00:44:39;3.70;1.00
15991;DHT22;8100;50.994;4.538;2024-03-25T00:47:27;3.80;1.00
15991;DHT22;8100;50.994;4.538;2024-03-25T00:50:13;3.70;1.00
15991;DHT22;8100;50.994;4.538;2024-03-25T00:53:00;3.80;1.00
15991;DHT22;8100;50.994;4.538;2024-03-25T00:55:47;3.40;1.00
15991;DHT22;8100;50.994;4.538;2024-03-25T00:58:33;3.50;1.00
15991;DHT22;8100;50.994;4.538;2024-03-25T01:01:20;3.50;1.00
15991;DHT22;8100;50.994;4.538;2024-03-25T01:04:08;3.60;1.00
15991;DHT22;8100;50.994;4.538;2024-03-25T01:06:54;3.60;1.00
15991;DHT22;8100;50.994;4.538;2024-03-25T01:09:41;3.30;1.00
15991;DHT22;8100;50.994;4.538;2024-03-25T01:12:28;3.30;44.10
15991;DHT22;8100;50.994;4.538;2024-03-25T01:15:14;3.20;79.10
15991;DHT22;8100;50.994;4.538;2024-03-25T01:18:01;3.50;99.90
15991;DHT22;8100;50.994;4.538;2024-03-25T01:20:48;3.40;99.90
15991;DHT22;8100;50.994;4.538;2024-03-25T01:23:35;3.20;99.90
15991;DHT22;8100;50.994;4.538;2024-03-25T01:26:21;3.20;99.90
15991;DHT22;8100;50.994;4.538;2024-03-25T01:29:08;3.30;99.90
15991;DHT22;8100;50.994;4.538;2024-03-25T01:31:54;3.20;99.90
15991;DHT22;8100;50.994;4.538;2024-03-25T01:34:43;3.10;99.90
15991;DHT22;8100;50.994;4.538;2024-03-25T01:37:30;2.90;99.90
15991;DHT22;8100;50.994;4.538;2024-03-25T01:40:18;2.90;99.90
15991;DHT22;8100;50.994;4.538;2024-03-25T01:43:04;2.80;99.90
15991;DHT22;8100;50.994;4.538;2024-03-25T01:45:54;2.80;99.90
15991;DHT22;8100;50.994;4.538;2024-03-25T01:48:40;2.40;99.90
15991;DHT22;8100;50.994;4.538;2024-03-25T01:51:28;2.50;99.90
15991;DHT22;8100;50.994;4.538;2024-03-25T01:54:15;2.60;99.90
15991;DHT22;8100;50.994;4.538;2024-03-25T01:57:03;2.10;99.90
15991;DHT22;8100;50.994;4.538;2024-03-25T01:59:49;2.10;99.90
15991;DHT22;8100;50.994;4.538;2024-03-25T02:02:39;2.30;99.90
15991;DHT22;8100;50.994;4.538;2024-03-25T02:05:27;2.00;99.90
15991;DHT22;8100;50.994;4.538;2024-03-25T02:08:14;2.40;99.90
15991;DHT22;8100;50.994;4.538;2024-03-25T02:11:01;2.40;99.90
15991;DHT22;8100;50.994;4.538;2024-03-25T02:13:49;1.90;99.90
15991;DHT22;8100;50.994;4.538;2024-03-25T02:16:35;1.80;99.90
15991;DHT22;8100;50.994;4.538;2024-03-25T02:19:23;2.00;99.90
15991;DHT22;8100;50.994;4.538;2024-03-25T02:22:09;2.40;99.90
15991;DHT22;8100;50.994;4.538;2024-03-25T02:24:57;2.30;99.90
15991;DHT22;8100;50.994;4.538;2024-03-25T02:27:45;2.30;99.90
15991;DHT22;8100;50.994;4.538;2024-03-25T02:30:32;2.00;99.90
15991;DHT22;8100;50.994;4.538;2024-03-25T02:33:18;2.10;99.90
15991;DHT22;8100;50.994;4.538;2024-03-25T02:36:05;2.10;99.90
15991;DHT22;8100;50.994;4.538;2024-03-25T02:38:51;2.20;99.90
15991;DHT22;8100;50.994;4.538;2024-03-25T02:41:38;2.10;99.90
15991;DHT22;8100;50.994;4.538;2024-03-25T02:44:26;1.60;99.90
15991;DHT22;8100;50.994;4.538;2024-03-25T02:47:13;1.70;99.90
15991;DHT22;8100;50.994;4.538;2024-03-25T02:50:00;1.50;99.90
15991;DHT22;8100;50.994;4.538;2024-03-25T02:52:46;2.20;99.90
15991;DHT22;8100;50.994;4.538;2024-03-25T02:55:33;2.00;99.90
15991;DHT22;8100;50.994;4.538;2024-03-25T02:58:19;2.20;99.90
15991;DHT22;8100;50.994;4.538;2024-03-25T03:01:07;1.80;99.90
15991;DHT22;8100;50.994;4.538;2024-03-25T03:03:53;1.40;99.90
15991;DHT22;8100;50.994;4.538;2024-03-25T03:06:40;1.70;99.90
15991;DHT22;8100;50.994;4.538;2024-03-25T03:09:26;2.10;99.90
15991;DHT22;8100;50.994;4.538;2024-03-25T03:12:13;1.20;99.90
15991;DHT22;8100;50.994;4.538;2024-03-25T03:14:59;1.70;99.90
15991;DHT22;8100;50.994;4.538;2024-03-25T03:17:47;1.70;99.90
15991;DHT22;8100;50.994;4.538;2024-03-25T03:20:33;1.30;99.90
15991;DHT22;8100;50.994;4.538;2024-03-25T03:23:21;1.30;99.90
15991;DHT22;8100;50.994;4.538;2024-03-25T03:26:07;2.00;99.90
15991;DHT22;8100;50.994;4.538;2024-03-25T03:28:54;2.10;99.90
15991;DHT22;8100;50.994;4.538;2024-03-25T03:31:40;2.10;99.90
15991;DHT22;8100;50.994;4.538;2024-03-25T03:34:28;1.50;99.90
15991;DHT22;8100;50.994;4.538;2024-03-25T03:37:16;1.40;99.90
15991;DHT22;8100;50.994;4.538;2024-03-25T03:40:03;1.90;99.90
15991;DHT22;8100;50.994;4.538;2024-03-25T03:42:51;2.20;99.90
15991;DHT22;8100;50.994;4.538;2024-03-25T03:45:37;2.10;99.90
15991;DHT22;8100;50.994;4.538;2024-03-25T03:48:24;2.10;99.90
15991;DHT22;8100;50.994;4.538;2024-03-25T03:51:11;1.10;99.90
15991;DHT22;8100;50.994;4.538;2024-03-25T03:53:58;1.30;99.90
15991;DHT22;8100;50.994;4.538;2024-03-25T03:56:44;1.70;99.90
15991;DHT22;8100;50.994;4.538;2024-03-25T03:59:31;0.80;99.90
15991;DHT22;8100;50.994;4.538;2024-03-25T04:02:17;1.80;99.90
15991;DHT22;8100;50.994;4.538;2024-03-25T04:05:05;1.40;99.90
15991;DHT22;8100;50.994;4.538;2024-03-25T04:07:52;0.90;99.90
15991;DHT22;8100;50.994;4.538;2024-03-25T04:10:39;1.00;99.90
15991;DHT22;8100;50.994;4.538;2024-03-25T04:13:25;1.70;99.90
15991;DHT22;8100;50.994;4.538;2024-03-25T04:16:13;1.70;99.90
15991;DHT22;8100;50.994;4.538;2024-03-25T04:18:59;1.10;99.90
15991;DHT22;8100;50.994;4.538;2024-03-25T04:21:46;1.60;99.90
15991;DHT22;8100;50.994;4.538;2024-03-25T04:24:33;0.70;99.90
15991;DHT22;8100;50.994;4.538;2024-03-25T04:27:21;1.00;99.90
15991;DHT22;8100;50.994;4.538;2024-03-25T04:30:11;1.50;99.90
15991;DHT22;8100;50.994;4.538;2024-03-25T04:32:58;1.80;99.90
15991;DHT22;8100;50.994;4.538;2024-03-25T04:35:44;0.80;99.90
15991;DHT22;8100;50.994;4.538;2024-03-25T04:38:31;0.80;99.90
15991;DHT22;8100;50.994;4.538;2024-03-25T04:41:19;2.10;99.90
15991;DHT22;8100;50.994;4.538;2024-03-25T04:44:05;1.50;99.90
15991;DHT22;8100;50.994;4.538;2024-03-25T04:46:51;2.20;99.90
15991;DHT22;8100;50.994;4.538;2024-03-25T04:49:37;1.50;99.90
15991;DHT22;8100;50.994;4.538;2024-03-25T04:52:23;0.80;99.90
15991;DHT22;8100;50.994;4.538;2024-03-25T04:55:09;0.70;99.90
15991;DHT22;8100;50.994;4.538;2024-03-25T04:57:56;1.70;99.90
15991;DHT22;8100;50.994;4.538;2024-03-25T05:00:42;1.80;99.90
15991;DHT22;8100;50.994;4.538;2024-03-25T05:03:28;1.60;99.90
15991;DHT22;8100;50.994;4.538;2024-03-25T05:06:14;1.50;99.90
15991;DHT22;8100;50.994;4.538;2024-03-25T05:09:00;1.50;99.90
15991;DHT22;8100;50.994;4.538;2024-03-25T05:11:46;0.70;99.90
15991;DHT22;8100;50.994;4.538;2024-03-25T05:14:33;1.80;99.90
15991;DHT22;8100;50.994;4.538;2024-03-25T05:17:19;0.60;99.90
15991;DHT22;8100;50.994;4.538;2024-03-25T05:20:08;0.50;99.90
15991;DHT22;8100;50.994;4.538;2024-03-25T05:22:55;1.50;99.90
15991;DHT22;8100;50.994;4.538;2024-03-25T05:25:41;0.40;99.90
15991;DHT22;8100;50.994;4.538;2024-03-25T05:28:27;0.40;99.90
15991;DHT22;8100;50.994;4.538;2024-03-25T05:31:14;1.10;99.90
15991;DHT22;8100;50.994;4.538;2024-03-25T05:34:00;1.50;99.90
15991;DHT22;8100;50.994;4.538;2024-03-25T05:36:47;1.80;99.90
15991;DHT22;8100;50.994;4.538;2024-03-25T05:39:33;1.60;99.90
15991;DHT22;8100;50.994;4.538;2024-03-25T05:42:19;1.90;99.90
15991;DHT22;8100;50.994;4.538;2024-03-25T05:45:06;0.50;99.90
15991;DHT22;8100;50.994;4.538;2024-03-25T05:47:53;0.70;99.90
15991;DHT22;8100;50.994;4.538;2024-03-25T05:50:39;0.80;99.90
15991;DHT22;8100;50.994;4.538;2024-03-25T05:53:26;2.20;99.90
15991;DHT22;8100;50.994;4.538;2024-03-25T05:56:12;2.10;99.90
15991;DHT22;8100;50.994;4.538;2024-03-25T05:58:58;2.40;99.90
15991;DHT22;8100;50.994;4.538;2024-03-25T06:01:44;2.50;99.90
15991;DHT22;8100;50.994;4.538;2024-03-25T06:04:32;2.50;99.90
15991;DHT22;8100;50.994;4.538;2024-03-25T06:07:18;1.80;99.90
15991;DHT22;8100;50.994;4.538;2024-03-25T06:10:04;1.60;99.90
15991;DHT22;8100;50.994;4.538;2024-03-25T06:12:51;2.10;99.90
15991;DHT22;8100;50.994;4.538;2024-03-25T06:15:37;3.20;99.90
15991;DHT22;8100;50.994;4.538;2024-03-25T06:18:23;2.60;99.90
15991;DHT22;8100;50.994;4.538;2024-03-25T06:21:11;2.60;99.90
15991;DHT22;8100;50.994;4.538;2024-03-25T06:23:57;3.60;99.90
15991;DHT22;8100;50.994;4.538;2024-03-25T06:26:43;2.80;99.90
15991;DHT22;8100;50.994;4.538;2024-03-25T06:29:30;3.10;99.90
15991;DHT22;8100;50.994;4.538;2024-03-25T06:32:16;4.30;99.90
15991;DHT22;8100;50.994;4.538;2024-03-25T06:35:32;3.30;99.90
15991;DHT22;8100;50.994;4.538;2024-03-25T06:38:19;4.40;99.90
15991;DHT22;8100;50.994;4.538;2024-03-25T06:41:05;3.50;99.90
15991;DHT22;8100;50.994;4.538;2024-03-25T06:43:51;4.70;99.90
15991;DHT22;8100;50.994;4.538;2024-03-25T06:46:37;3.80;99.90
15991;DHT22;8100;50.994;4.538;2024-03-25T06:49:23;4.20;99.90
15991;DHT22;8100;50.994;4.538;2024-03-25T06:52:09;4.80;99.90
15991;DHT22;8100;50.994;4.538;2024-03-25T06:54:57;3.80;99.90
15991;DHT22;8100;50.994;4.538;2024-03-25T06:57:43;3.80;99.90
15991;DHT22;8100;50.994;4.538;2024-03-25T07:00:29;3.90;99.90
15991;DHT22;8100;50.994;4.538;2024-03-25T07:03:15;5.00;99.90
15991;DHT22;8100;50.994;4.538;2024-03-25T07:06:01;5.00;99.90
15991;DHT22;8100;50.994;4.538;2024-03-25T07:08:48;5.00;99.90
15991;DHT22;8100;50.994;4.538;2024-03-25T07:11:35;5.10;99.90
15991;DHT22;8100;50.994;4.538;2024-03-25T07:14:21;4.80;99.90
15991;DHT22;8100;50.994;4.538;2024-03-25T07:17:07;4.50;99.90
15991;DHT22;8100;50.994;4.538;2024-03-25T07:19:53;4.60;99.90
15991;DHT22;8100;50.994;4.538;2024-03-25T07:22:39;4.80;99.90
15991;DHT22;8100;50.994;4.538;2024-03-25T07:25:25;5.00;99.90
15991;DHT22;8100;50.994;4.538;2024-03-25T07:28:13;5.80;99.90
15991;DHT22;8100;50.994;4.538;2024-03-25T07:30:59;5.70;99.90
15991;DHT22;8100;50.994;4.538;2024-03-25T07:33:45;6.10;99.90
15991;DHT22;8100;50.994;4.538;2024-03-25T07:36:31;5.60;99.90
15991;DHT22;8100;50.994;4.538;2024-03-25T07:39:17;5.50;99.90
15991;DHT22;8100;50.994;4.538;2024-03-25T07:42:03;6.20;99.90
15991;DHT22;8100;50.994;4.538;2024-03-25T07:44:51;6.10;99.90
15991;DHT22;8100;50.994;4.538;2024-03-25T07:47:37;5.90;99.90
15991;DHT22;8100;50.994;4.538;2024-03-25T07:50:23;6.10;99.90
15991;DHT22;8100;50.994;4.538;2024-03-25T07:53:09;6.50;99.90
15991;DHT22;8100;50.994;4.538;2024-03-25T07:55:55;6.10;99.90
15991;DHT22;8100;50.994;4.538;2024-03-25T07:58:41;6.30;99.90
15991;DHT22;8100;50.994;4.538;2024-03-25T08:01:28;6.20;99.90
15991;DHT22;8100;50.994;4.538;2024-03-25T08:04:14;6.40;99.90
15991;DHT22;8100;50.994;4.538;2024-03-25T08:07:00;6.50;99.90
15991;DHT22;8100;50.994;4.538;2024-03-25T08:09:46;6.60;99.90
15991;DHT22;8100;50.994;4.538;2024-03-25T08:12:32;7.00;99.90
15991;DHT22;8100;50.994;4.538;2024-03-25T08:15:18;6.70;99.90
15991;DHT22;8100;50.994;4.538;2024-03-25T08:18:06;6.80;99.90
15991;DHT22;8100;50.994;4.538;2024-03-25T08:20:52;6.70;99.90
15991;DHT22;8100;50.994;4.538;2024-03-25T08:23:38;6.90;99.90
15991;DHT22;8100;50.994;4.538;2024-03-25T08:26:24;6.80;99.90
15991;DHT22;8100;50.994;4.538;2024-03-25T08:29:10;6.80;99.90
15991;DHT22;8100;50.994;4.538;2024-03-25T08:31:56;7.10;99.90
15991;DHT22;8100;50.994;4.538;2024-03-25T08:34:43;7.10;99.90
15991;DHT22;8100;50.994;4.538;2024-03-25T08:37:29;7.30;99.90
15991;DHT22;8100;50.994;4.538;2024-03-25T08:40:15;7.40;99.90
15991;DHT22;8100;50.994;4.538;2024-03-25T08:43:01;7.60;99.90
15991;DHT22;8100;50.994;4.538;2024-03-25T08:45:47;7.90;99.90
15991;DHT22;8100;50.994;4.538;2024-03-25T08:48:33;7.90;99.90
15991;DHT22;8100;50.994;4.538;2024-03-25T08:51:21;8.00;99.90
15991;DHT22;8100;50.994;4.538;2024-03-25T08:54:07;8.00;99.90
15991;DHT22;8100;50.994;4.538;2024-03-25T08:56:53;8.10;99.90
15991;DHT22;8100;50.994;4.538;2024-03-25T08:59:39;8.00;89.30
15991;DHT22;8100;50.994;4.538;2024-03-25T09:02:25;8.20;32.00
15991;DHT22;8100;50.994;4.538;2024-03-25T09:05:11;8.20;1.00
15991;DHT22;8100;50.994;4.538;2024-03-25T09:07:58;8.20;1.00
15991;DHT22;8100;50.994;4.538;2024-03-25T09:10:44;8.10;1.00
15991;DHT22;8100;50.994;4.538;2024-03-25T09:13:49;8.20;1.00
15991;DHT22;8100;50.994;4.538;2024-03-25T09:16:35;8.50;1.00
15991;DHT22;8100;50.994;4.538;2024-03-25T09:19:21;8.70;1.00
15991;DHT22;8100;50.994;4.538;2024-03-25T09:22:07;8.80;1.00
15991;DHT22;8100;50.994;4.538;2024-03-25T09:24:54;8.90;1.00
15991;DHT22;8100;50.994;4.538;2024-03-25T09:27:41;9.10;1.00
15991;DHT22;8100;50.994;4.538;2024-03-25T09:30:27;9.10;1.00
15991;DHT22;8100;50.994;4.538;2024-03-25T09:33:13;9.20;99.90
15991;DHT22;8100;50.994;4.538;2024-03-25T09:35:59;9.20;1.00
15991;DHT22;8100;50.994;4.538;2024-03-25T09:38:45;9.20;1.00
15991;DHT22;8100;50.994;4.538;2024-03-25T09:41:35;9.50;1.00
15991;DHT22;8100;50.994;4.538;2024-03-25T09:44:23;9.50;99.90
15991;DHT22;8100;50.994;4.538;2024-03-25T09:47:10;9.70;99.90
15991;DHT22;8100;50.994;4.538;2024-03-25T09:49:57;9.70;1.00
15991;DHT22;8100;50.994;4.538;2024-03-25T09:52:45;9.90;1.00
15991;DHT22;8100;50.994;4.538;2024-03-25T09:55:31;9.90;1.00
15991;DHT22;8100;50.994;4.538;2024-03-25T09:58:19;10.20;1.00
15991;DHT22;8100;50.994;4.538;2024-03-25T10:01:06;10.30;1.00
15991;DHT22;8100;50.994;4.538;2024-03-25T10:03:52;10.30;1.00
15991;DHT22;8100;50.994;4.538;2024-03-25T10:06:39;10.20;99.90
15991;DHT22;8100;50.994;4.538;2024-03-25T10:09:26;10.10;99.90
15991;DHT22;8100;50.994;4.538;2024-03-25T10:12:12;10.10;99.90
15991;DHT22;8100;50.994;4.538;2024-03-25T10:15:00;10.30;99.90
15991;DHT22;8100;50.994;4.538;2024-03-25T10:17:49;10.50;99.90
15991;DHT22;8100;50.994;4.538;2024-03-25T10:20:36;10.60;99.90
15991;DHT22;8100;50.994;4.538;2024-03-25T10:23:23;10.70;86.40
15991;DHT22;8100;50.994;4.538;2024-03-25T10:26:09;10.80;30.70
15991;DHT22;8100;50.994;4.538;2024-03-25T10:29:03;10.80;1.00
15991;DHT22;8100;50.994;4.538;2024-03-25T10:31:59;10.90;1.00
15991;DHT22;8100;50.994;4.538;2024-03-25T10:34:45;11.00;1.00
15991;DHT22;8100;50.994;4.538;2024-03-25T10:37:32;11.10;1.00
15991;DHT22;8100;50.994;4.538;2024-03-25T10:40:19;11.20;1.00
15991;DHT22;8100;50.994;4.538;2024-03-25T10:43:08;11.40;1.00
15991;DHT22;8100;50.994;4.538;2024-03-25T10:45:55;11.60;1.00
15991;DHT22;8100;50.994;4.538;2024-03-25T10:48:48;11.80;1.00
15991;DHT22;8100;50.994;4.538;2024-03-25T10:51:38;11.80;1.00
15991;DHT22;8100;50.994;4.538;2024-03-25T10:54:25;11.80;1.00
15991;DHT22;8100;50.994;4.538;2024-03-25T10:57:13;12.00;1.00
15991;DHT22;8100;50.994;4.538;2024-03-25T11:00:00;11.90;1.00
15991;DHT22;8100;50.994;4.538;2024-03-25T11:02:47;12.00;1.00
15991;DHT22;8100;50.994;4.538;2024-03-25T11:05:35;12.30;1.00
15991;DHT22;8100;50.994;4.538;2024-03-25T11:08:30;12.30;1.00
15991;DHT22;8100;50.994;4.538;2024-03-25T11:11:16;12.30;1.00
15991;DHT22;8100;50.994;4.538;2024-03-25T11:14:03;12.20;99.90
15991;DHT22;8100;50.994;4.538;2024-03-25T11:16:52;12.30;99.90
15991;DHT22;8100;50.994;4.538;2024-03-25T11:19:39;12.40;99.90
15991;DHT22;8100;50.994;4.538;2024-03-25T11:22:26;12.30;99.90
15991;DHT22;8100;50.994;4.538;2024-03-25T11:25:13;12.50;99.90
15991;DHT22;8100;50.994;4.538;2024-03-25T11:27:59;12.60;99.90
15991;DHT22;8100;50.994;4.538;2024-03-25T11:30:45;13.00;99.90
15991;DHT22;8100;50.994;4.538;2024-03-25T11:33:31;12.90;99.90
15991;DHT22;8100;50.994;4.538;2024-03-25T11:36:17;12.70;99.90
15991;DHT22;8100;50.994;4.538;2024-03-25T11:39:05;12.60;99.90
15991;DHT22;8100;50.994;4.538;2024-03-25T11:41:51;12.30;99.90
15991;DHT22;8100;50.994;4.538;2024-03-25T11:44:37;12.70;99.90
15991;DHT22;8100;50.994;4.538;2024-03-25T11:47:24;13.30;99.90
15991;DHT22;8100;50.994;4.538;2024-03-25T11:50:11;13.10;99.90
15991;DHT22;8100;50.994;4.538;2024-03-25T11:52:57;13.40;99.90
15991;DHT22;8100;50.994;4.538;2024-03-25T11:55:47;13.20;99.90
15991;DHT22;8100;50.994;4.538;2024-03-25T11:58:33;13.30;99.90
15991;DHT22;8100;50.994;4.538;2024-03-25T12:01:19;13.20;99.90
15991;DHT22;8100;50.994;4.538;2024-03-25T12:04:17;13.30;99.90
15991;DHT22;8100;50.994;4.538;2024-03-25T12:07:03;13.30;99.90
15991;DHT22;8100;50.994;4.538;2024-03-25T12:09:49;13.50;99.90
15991;DHT22;8100;50.994;4.538;2024-03-25T12:12:55;13.50;99.90
15991;DHT22;8100;50.994;4.538;2024-03-25T12:15:41;13.20;99.90
15991;DHT22;8100;50.994;4.538;2024-03-25T12:18:28;13.30;99.90
15991;DHT22;8100;50.994;4.538;2024-03-25T12:21:14;13.60;99.90
15991;DHT22;8100;50.994;4.538;2024-03-25T12:24:01;14.30;99.90
15991;DHT22;8100;50.994;4.538;2024-03-25T12:26:47;14.50;99.90
15991;DHT22;8100;50.994;4.538;2024-03-25T12:29:34;14.50;99.90
15991;DHT22;8100;50.994;4.538;2024-03-25T12:32:20;14.50;99.90
15991;DHT22;8100;50.994;4.538;2024-03-25T12:35:07;14.40;99.90
15991;DHT22;8100;50.994;4.538;2024-03-25T12:37:54;14.00;99.90
15991;DHT22;8100;50.994;4.538;2024-03-25T12:40:40;13.90;99.90
15991;DHT22;8100;50.994;4.538;2024-03-25T12:43:26;13.70;99.90
15991;DHT22;8100;50.994;4.538;2024-03-25T12:46:13;13.30;99.90
15991;DHT22;8100;50.994;4.538;2024-03-25T12:48:59;13.60;99.90
15991;DHT22;8100;50.994;4.538;2024-03-25T12:51:45;13.80;99.90
15991;DHT22;8100;50.994;4.538;2024-03-25T12:54:32;13.80;99.90
15991;DHT22;8100;50.994;4.538;2024-03-25T12:57:18;14.10;99.90
15991;DHT22;8100;50.994;4.538;2024-03-25T13:00:06;14.60;99.90
15991;DHT22;8100;50.994;4.538;2024-03-25T13:02:53;14.80;99.90
15991;DHT22;8100;50.994;4.538;2024-03-25T13:05:43;14.60;99.90
15991;DHT22;8100;50.994;4.538;2024-03-25T13:08:29;14.50;99.90
15991;DHT22;8100;50.994;4.538;2024-03-25T13:11:15;14.50;99.90
15991;DHT22;8100;50.994;4.538;2024-03-25T13:14:01;14.40;99.90
15991;DHT22;8100;50.994;4.538;2024-03-25T13:16:48;14.40;99.90
15991;DHT22;8100;50.994;4.538;2024-03-25T13:19:35;13.80;99.90
15991;DHT22;8100;50.994;4.538;2024-03-25T13:22:21;13.50;99.90
15991;DHT22;8100;50.994;4.538;2024-03-25T13:25:08;13.80;99.90
15991;DHT22;8100;50.994;4.538;2024-03-25T13:27:54;14.10;99.90
15991;DHT22;8100;50.994;4.538;2024-03-25T13:30:40;14.00;99.90
15991;DHT22;8100;50.994;4.538;2024-03-25T13:33:26;14.10;99.90
15991;DHT22;8100;50.994;4.538;2024-03-25T13:36:13;14.20;99.90
15991;DHT22;8100;50.994;4.538;2024-03-25T13:38:59;14.00;99.90
15991;DHT22;8100;50.994;4.538;2024-03-25T13:41:45;13.80;99.90
15991;DHT22;8100;50.994;4.538;2024-03-25T13:44:31;13.80;99.90
15991;DHT22;8100;50.994;4.538;2024-03-25T13:47:17;13.90;99.90
15991;DHT22;8100;50.994;4.538;2024-03-25T13:50:04;13.60;99.90
15991;DHT22;8100;50.994;4.538;2024-03-25T13:52:51;13.50;99.90
15991;DHT22;8100;50.994;4.538;2024-03-25T13:55:37;13.60;99.90
15991;DHT22;8100;50.994;4.538;2024-03-25T13:58:24;13.90;99.90
15991;DHT22;8100;50.994;4.538;2024-03-25T14:01:10;13.80;99.90
15991;DHT22;8100;50.994;4.538;2024-03-25T14:03:56;13.70;99.90
15991;DHT22;8100;50.994;4.538;2024-03-25T14:06:42;13.80;99.90
15991;DHT22;8100;50.994;4.538;2024-03-25T14:09:29;14.10;99.90
15991;DHT22;8100;50.994;4.538;2024-03-25T14:12:15;13.70;99.90
15991;DHT22;8100;50.994;4.538;2024-03-25T14:15:01;13.60;99.90
15991;DHT22;8100;50.994;4.538;2024-03-25T14:17:47;13.80;99.90
15991;DHT22;8100;50.994;4.538;2024-03-25T14:20:33;13.80;99.90
15991;DHT22;8100;50.994;4.538;2024-03-25T14:23:19;13.60;99.90
15991;DHT22;8100;50.994;4.538;2024-03-25T14:26:07;13.30;99.90
15991;DHT22;8100;50.994;4.538;2024-03-25T14:28:53;13.40;99.90
15991;DHT22;8100;50.994;4.538;2024-03-25T14:31:39;14.50;99.90
15991;DHT22;8100;50.994;4.538;2024-03-25T14:34:25;17.00;99.90
15991;DHT22;8100;50.994;4.538;2024-03-25T14:37:11;18.00;99.90
15991;DHT22;8100;50.994;4.538;2024-03-25T14:39:57;17.70;99.90
15991;DHT22;8100;50.994;4.538;2024-03-25T14:42:44;17.50;99.90
15991;DHT22;8100;50.994;4.538;2024-03-25T14:45:30;17.70;99.90
15991;DHT22;8100;50.994;4.538;2024-03-25T14:48:16;16.90;99.90
15991;DHT22;8100;50.994;4.538;2024-03-25T14:51:02;17.10;99.90
15991;DHT22;8100;50.994;4.538;2024-03-25T14:53:49;17.10;99.90
15991;DHT22;8100;50.994;4.538;2024-03-25T14:56:35;16.60;99.90
15991;DHT22;8100;50.994;4.538;2024-03-25T14:59:22;16.20;99.90
15991;DHT22;8100;50.994;4.538;2024-03-25T15:02:08;16.10;99.90
15991;DHT22;8100;50.994;4.538;2024-03-25T15:04:54;17.00;99.90
15991;DHT22;8100;50.994;4.538;2024-03-25T15:07:40;17.40;99.90
15991;DHT22;8100;50.994;4.538;2024-03-25T15:10:26;18.70;99.90
15991;DHT22;8100;50.994;4.538;2024-03-25T15:13:13;18.50;99.90
15991;DHT22;8100;50.994;4.538;2024-03-25T15:16:03;18.60;99.90
15991;DHT22;8100;50.994;4.538;2024-03-25T15:18:51;18.60;99.90
15991;DHT22;8100;50.994;4.538;2024-03-25T15:21:37;17.60;99.90
15991;DHT22;8100;50.994;4.538;2024-03-25T15:24:23;17.20;99.90
15991;DHT22;8100;50.994;4.538;2024-03-25T15:27:09;16.10;99.90
15991;DHT22;8100;50.994;4.538;2024-03-25T15:29:55;15.80;99.90
15991;DHT22;8100;50.994;4.538;2024-03-25T15:32:42;15.70;99.90
15991;DHT22;8100;50.994;4.538;2024-03-25T15:35:28;15.90;99.90
15991;DHT22;8100;50.994;4.538;2024-03-25T15:38:14;15.50;99.90
15991;DHT22;8100;50.994;4.538;2024-03-25T15:41:00;15.50;99.90
15991;DHT22;8100;50.994;4.538;2024-03-25T15:43:51;15.10;99.90
15991;DHT22;8100;50.994;4.538;2024-03-25T15:46:37;15.30;99.90
15991;DHT22;8100;50.994;4.538;2024-03-25T15:49:24;14.90;99.90
15991;DHT22;8100;50.994;4.538;2024-03-25T15:52:12;14.80;99.90
15991;DHT22;8100;50.994;4.538;2024-03-25T15:54:58;14.80;99.90
15991;DHT22;8100;50.994;4.538;2024-03-25T15:57:44;14.50;99.90
15991;DHT22;8100;50.994;4.538;2024-03-25T16:00:30;14.10;99.90
15991;DHT22;8100;50.994;4.538;2024-03-25T16:03:16;13.80;99.90
15991;DHT22;8100;50.994;4.538;2024-03-25T16:06:04;13.50;99.90
15991;DHT22;8100;50.994;4.538;2024-03-25T16:08:51;13.50;99.90
15991;DHT22;8100;50.994;4.538;2024-03-25T16:11:37;13.40;99.90
15991;DHT22;8100;50.994;4.538;2024-03-25T16:14:23;13.40;99.90
15991;DHT22;8100;50.994;4.538;2024-03-25T16:17:09;13.20;99.90
15991;DHT22;8100;50.994;4.538;2024-03-25T16:19:55;13.10;99.90
15991;DHT22;8100;50.994;4.538;2024-03-25T16:37:01;13.20;99.90
15991;DHT22;8100;50.994;4.538;2024-03-25T16:39:47;12.90;99.90
15991;DHT22;8100;50.994;4.538;2024-03-25T16:42:33;12.90;99.90
15991;DHT22;8100;50.994;4.538;2024-03-25T16:45:19;12.90;99.90
15991;DHT22;8100;50.994;4.538;2024-03-25T16:48:06;12.60;99.90
15991;DHT22;8100;50.994;4.538;2024-03-25T16:50:52;12.50;99.90
15991;DHT22;8100;50.994;4.538;2024-03-25T16:53:40;12.30;99.90
15991;DHT22;8100;50.994;4.538;2024-03-25T16:56:26;12.20;99.90
15991;DHT22;8100;50.994;4.538;2024-03-25T16:59:12;12.20;99.90
15991;DHT22;8100;50.994;4.538;2024-03-25T17:01:58;12.20;99.90
15991;DHT22;8100;50.994;4.538;2024-03-25T17:04:44;12.10;99.90
15991;DHT22;8100;50.994;4.538;2024-03-25T17:07:30;12.00;99.90
15991;DHT22;8100;50.994;4.538;2024-03-25T17:10:17;11.90;99.90
15991;DHT22;8100;50.994;4.538;2024-03-25T17:13:03;11.80;99.90
15991;DHT22;8100;50.994;4.538;2024-03-25T17:15:49;11.70;99.90
15991;DHT22;8100;50.994;4.538;2024-03-25T17:18:36;11.60;99.90
15991;DHT22;8100;50.994;4.538;2024-03-25T17:21:22;11.50;99.90
15991;DHT22;8100;50.994;4.538;2024-03-25T17:24:08;11.40;99.90
15991;DHT22;8100;50.994;4.538;2024-03-25T17:26:55;11.30;99.90
15991;DHT22;8100;50.994;4.538;2024-03-25T17:29:41;11.30;99.90
15991;DHT22;8100;50.994;4.538;2024-03-25T17:32:27;11.20;99.90
15991;DHT22;8100;50.994;4.538;2024-03-25T17:35:13;11.00;99.90
15991;DHT22;8100;50.994;4.538;2024-03-25T17:37:59;11.00;99.90
15991;DHT22;8100;50.994;4.538;2024-03-25T17:40:45;10.90;99.90
15991;DHT22;8100;50.994;4.538;2024-03-25T17:43:33;10.80;99.90
15991;DHT22;8100;50.994;4.538;2024-03-25T17:46:19;10.70;99.90
15991;DHT22;8100;50.994;4.538;2024-03-25T17:49:05;10.70;99.90
15991;DHT22;8100;50.994;4.538;2024-03-25T17:51:51;10.60;99.90
15991;DHT22;8100;50.994;4.538;2024-03-25T17:54:37;10.40;99.90
15991;DHT22;8100;50.994;4.538;2024-03-25T17:57:23;10.40;99.90
15991;DHT22;8100;50.994;4.538;2024-03-25T18:00:11;10.20;99.90
15991;DHT22;8100;50.994;4.538;2024-03-25T18:02:57;10.20;99.90
15991;DHT22;8100;50.994;4.538;2024-03-25T18:05:43;10.20;99.90
15991;DHT22;8100;50.994;4.538;2024-03-25T18:08:29;10.10;99.90
15991;DHT22;8100;50.994;4.538;2024-03-25T18:11:15;10.10;99.90
15991;DHT22;8100;50.994;4.538;2024-03-25T18:14:01;10.00;99.90
15991;DHT22;8100;50.994;4.538;2024-03-25T18:16:48;9.90;99.90